x

Bodega Bay - 48nm Nnw Of San Francisco, Ca (46013) Wave Buoy

12:50am - Tue 3rd Mar 2015 All times are PST. -8 hours from GMT.

  • Sig Wave height 7.9ft
  • Peak Period 9s
  • Average Period 7s
  • Wind
    11mph, 16mph gusts
  • Sea Temp 54°f
  • Air Temp 53°f
  • Sea Pressure 1015.8mb
  • Bodega Bay - 48nm Nnw Of San Francisco, Ca
  • Bodega Bay - 48nm Nnw Of San Francisco, Ca

More Historic Weather Station data

Upgrade to MSW Pro to gain access to the past 30 days of data for over 8000 Wavebouys and Weather Stations around the globe.

Join Pro

Comparision Forecast

View Surf forecast
   
Tue 03/03 12:50am 8ft 9s 7s 11 16 mph 1015.8mb 54f 53f
Mon 03/02 11:50pm 8ft 9s 7s 7 9 mph 1015.6mb 54f 53f
10:50pm 9ft 10s 7s 9 11 mph 1015.1mb 54f 53f
9:50pm 9ft 10s 7s 9 11 mph 1014.4mb 54f 54f
8:50pm 8.5ft 9s 7s 9 11 mph 1013.5mb 54f 54f
7:50pm 7.5ft 8s 6s 11 13 mph 1012.9mb 54f 54f
6:50pm 8ft 9s 7s 16 18 mph 1012mb 54f 54f
5:50pm 7ft 10s 6s 18 22 mph 1011mb 54f 54f
4:50pm 7ft 9s 6s 18 22 mph 1010.3mb 54f 54f
3:50pm 8ft 9s 7s 13 18 mph 1009.8mb 54f 54f
2:50pm 9ft 9s 7s 16 20 mph 1009.5mb 54f 53f
1:50pm 8.5ft 9s 7s 16 20 mph 1009.1mb 54f 53f
12:50pm 8ft 9s 7s 18 20 mph 1009.1mb 54f 53f
11:50am 8ft 9s 7s 18 20 mph 1008.9mb 54f 53f
10:50am 7.5ft 9s 6s 20 25 mph 1008.6mb 54f 53f
9:50am 7ft 9s 6s 20 22 mph 1008.9mb 54f 52f
8:50am 7.5ft 8s 6s 22 27 mph 1008.7mb 54f 53f
7:50am 9ft 8s 6s 22 27 mph 1008.7mb 54f 53f
6:50am 8ft 8s 6s 25 29 mph 1008.5mb 54f 53f
5:50am 7ft 10s 6s 22 27 mph 1008.8mb 54f 53f
4:50am 6ft 9s 6s 22 27 mph 1009.4mb 54f 53f
3:50am 5ft 9s 5s 22 25 mph 1010.2mb 54f 53f
2:50am 5ft 8s 6s 18 20 mph 1011mb 54f 53f
1:50am 5ft 9s 6s 13 16 mph 1011.5mb 54f 54f
12:50am 4.5ft 10s 5s 16 20 mph 1012.4mb 54f 54f
Sun 03/01 11:50pm 4.5ft 8s 6s 18 20 mph 1013.2mb 55f 54f
10:50pm 5ft 10s 6s 13 16 mph 1013.4mb 55f 54f
9:50pm 5ft 9s 7s 13 16 mph 1013.5mb 54f 55f
8:50pm 5.5ft 10s 7s 11 13 mph 1013.6mb 55f 54f
7:50pm 5.5ft 10s 7s 11 13 mph 1013.7mb 55f 54f
6:50pm 5.5ft 9s 7s 11 13 mph 1013.7mb 55f 54f
5:50pm 5.5ft 10s 7s 13 16 mph 1013.7mb 55f 55f
4:50pm 6ft 11s 8s 13 16 mph 1013.7mb 56f 56f
3:50pm 6ft 9s 7s 9 11 mph 1014mb 56f 56f
2:50pm 7ft 10s 8s 9 11 mph 1014.2mb 56f 56f
1:50pm 7ft 10s 8s 4 7 mph 1014.6mb 56f 55f
12:50pm 7ft 11s 8s 2 4 mph 1015.4mb 56f 55f
11:50am 7ft 11s 8s  -  2 mph 1015.8mb 55f 55f
10:50am 7ft 11s 8s 2 4 mph 1016mb 55f 53f
9:50am 7ft 11s 8s 7 9 mph 1016mb 55f 52f
8:50am 9ft 12s 9s 4 7 mph 1015.6mb 55f 53f
7:50am 8ft 11s 8s 4 7 mph 1015mb 54f 54f
6:50am 9.5ft 12s 9s 2 4 mph 1014.5mb 54f 52f
5:50am 8ft 11s 8s 4 7 mph 1014.1mb 54f 52f
4:50am 9ft 11s 8s 4 9 mph 1013.9mb 54f 53f
3:50am 8.5ft 11s 8s  -  4 mph 1013.5mb 54f 53f
2:50am 9ft 11s 9s 2 7 mph 1013.7mb 55f 53f
1:50am 8.5ft 11s 8s 4
mph
1014mb 55f 53f
12:50am 9.5ft 11s 9s 4 7 mph 1013.7mb 55f 53f
Sat 02/28 11:50pm 9ft 11s 8s 7 9 mph 1013.3mb 54f 54f
10:50pm 8ft 11s 8s 9 11 mph 1013mb 55f 54f
9:50pm 8.5ft 11s 8s 9 11 mph 1012.6mb 55f 54f
8:50pm 8.5ft 10s 8s 13 16 mph 1012.1mb 55f 54f
7:50pm 8ft 11s 8s 4 7 mph 1011.2mb 55f 55f
6:50pm 8ft 11s 7s 11 13 mph 1010.9mb 55f 55f
5:50pm 8ft 10s 7s 16 20 mph 1010.4mb 55f 53f
4:50pm 8ft 10s 7s 18 20 mph 1009.7mb 55f 53f
3:50pm 7ft 9s 7s 13 16 mph 1009.4mb 55f 53f
2:50pm 7.5ft 10s 7s 13 18 mph 1009mb 55f 53f
1:50pm 7ft 9s 7s 11 13 mph 1008.9mb 55f 53f
12:50pm 6.5ft 9s 7s 13 16 mph 1009.2mb 55f 53f
11:50am 6ft 9s 7s 16 18 mph 1009.4mb 55f 53f
10:50am 7ft 9s 7s 16 18 mph 1009.1mb 55f 52f
9:50am 6.5ft 9s 7s 16 18 mph 1008.6mb 55f 52f
8:50am 6.5ft 8s 7s 16 18 mph 1008.1mb 55f 52f
7:50am 5.5ft 10s 6s 16 18 mph 1007.6mb 55f 52f
6:50am 6ft 9s 6s 16 18 mph 1007.2mb 54f 52f
5:50am 7ft 8s 6s 18 20 mph 1006.9mb 54f 52f
4:50am 7ft 8s 6s 18 20 mph 1006.6mb 54f 52f
3:50am 6.5ft 8s 6s 18 22 mph 1006.5mb 54f 52f
2:50am 7ft 8s 6s 18 22 mph 1007mb 54f 52f
1:50am 7ft 8s 6s 20 25 mph 1007.4mb 54f 52f
12:50am 7ft 8s 6s 20 22 mph 1007.4mb 54f 52f
Fri 02/27 11:50pm 8ft 8s 6s 22 27 mph 1007.6mb 54f 53f
10:50pm 8ft 8s 6s 22 27 mph 1007.8mb 54f 53f
9:50pm 7.5ft 8s 6s 25 31 mph 1008mb 55f 53f
8:50pm 8ft 8s 6s 27 31 mph 1007.8mb 55f 53f
7:50pm 7.5ft 7s 5s 27 31 mph 1008mb 55f 53f
6:50pm 7ft 6s 5s 27 34 mph 1008.1mb 55f 53f
5:50pm 7ft 7s 5s 27 31 mph 1008.4mb 55f 53f
4:50pm 6.5ft 7s 5s 27 31 mph 1008.7mb 55f 53f
3:50pm 6.5ft 6s 5s 27 31 mph 1009.2mb 55f 54f
2:50pm 6ft 6s 5s 25 29 mph 1009.6mb 55f 53f
1:50pm 5.5ft 6s 5s 25 29 mph 1010.2mb 55f 54f
12:50pm 6ft 5s 5s 25 29 mph 1010.9mb 55f 54f
11:50am 6ft 6s 5s 22 27 mph 1011.9mb 55f 54f
10:50am 5.5ft 6s 5s 20 27 mph 1012.4mb 55f 54f
9:50am 5ft 11s 5s 25 29 mph 1012.6mb 55f 54f